Time;durP1;ratioP1;P1;durP2;ratioP2;P2;SDS_P1;SDS_P2;PMS_P1;PMS_P2;Temp;Humidity;BMP_temperature;BMP_pressure;BME280_temperature;BME280_humidity;BME280_pressure;Samples;Min_cycle;Max_cycle;Signal;HPM_P1;HPM_P2
2022/03/19 00:02:21;;;;;;;33.70;19.88;;;;;;;;;;5076847;28;20090;-76
2022/03/19 00:04:47;;;;;;;32.92;19.15;;;;;;;;;;5096940;28;20123;-76
2022/03/19 00:07:13;;;;;;;39.10;19.52;;;;;;;;;;5098066;28;20078;-76
2022/03/19 00:09:39;;;;;;;36.47;19.73;;;;;;;;;;5080604;28;20356;-77
2022/03/19 00:12:12;;;;;;;39.67;20.83;;;;;;;;;;5097640;28;20370;-76
2022/03/19 00:14:38;;;;;;;38.63;19.33;;;;;;;;;;5081362;28;20032;-77
2022/03/19 00:17:04;;;;;;;30.25;19.10;;;;;;;;;;5080459;28;20044;-77
2022/03/19 00:19:30;;;;;;;32.90;19.40;;;;;;;;;;5097469;28;20050;-77
2022/03/19 00:21:56;;;;;;;33.95;19.90;;;;;;;;;;5080724;28;20044;-77
2022/03/19 00:24:22;;;;;;;36.92;19.20;;;;;;;;;;5082407;28;20048;-78
2022/03/19 00:26:48;;;;;;;35.28;19.42;;;;;;;;;;5098963;28;20035;-77
2022/03/19 00:29:14;;;;;;;38.15;20.33;;;;;;;;;;5097435;28;20047;-77
2022/03/19 00:31:40;;;;;;;34.25;20.65;;;;;;;;;;5080521;28;20036;-76
2022/03/19 00:34:06;;;;;;;43.13;21.38;;;;;;;;;;5097345;28;20044;-76
2022/03/19 00:36:32;;;;;;;35.05;20.40;;;;;;;;;;5098357;28;20093;-77
2022/03/19 00:38:58;;;;;;;34.55;20.50;;;;;;;;;;5080217;28;20119;-77
2022/03/19 00:41:24;;;;;;;34.20;21.25;;;;;;;;;;5080155;28;20101;-77
2022/03/19 00:43:50;;;;;;;38.40;20.70;;;;;;;;;;5097271;28;20040;-77
2022/03/19 00:46:18;;;;;;;41.92;21.55;;;;;;;;;;5097902;28;20367;-77
2022/03/19 00:48:44;;;;;;;35.83;20.55;;;;;;;;;;5096913;28;20048;-76
2022/03/19 00:51:10;;;;;;;38.28;21.45;;;;;;;;;;5097875;28;20431;-76
2022/03/19 00:53:36;;;;;;;37.08;20.38;;;;;;;;;;5080002;28;20490;-76
2022/03/19 00:56:02;;;;;;;39.92;20.85;;;;;;;;;;5098011;28;20032;-76
2022/03/19 00:58:28;;;;;;;35.03;20.90;;;;;;;;;;5097189;28;20043;-77
2022/03/19 01:00:54;;;;;;;39.30;21.67;;;;;;;;;;5080119;28;20040;-77
2022/03/19 01:03:20;;;;;;;38.17;20.95;;;;;;;;;;5079780;28;20113;-76
2022/03/19 01:05:46;;;;;;;36.80;21.50;;;;;;;;;;5097270;28;20681;-77
2022/03/19 01:08:12;;;;;;;35.47;20.67;;;;;;;;;;5096413;28;20397;-77
2022/03/19 01:10:39;;;;;;;32.45;20.40;;;;;;;;;;5080469;28;20036;-77
2022/03/19 01:13:05;;;;;;;35.33;20.90;;;;;;;;;;5081135;28;20036;-77
2022/03/19 01:15:31;;;;;;;37.08;19.40;;;;;;;;;;5080072;28;20363;-77
2022/03/19 01:17:57;;;;;;;35.33;20.35;;;;;;;;;;5096483;28;20462;-77
2022/03/19 01:20:24;;;;;;;34.00;19.75;;;;;;;;;;5096310;28;20040;-77
2022/03/19 01:22:51;;;;;;;36.55;20.38;;;;;;;;;;5079479;28;20301;-76
2022/03/19 01:25:17;;;;;;;37.97;20.90;;;;;;;;;;5097166;28;20039;-76
2022/03/19 01:27:44;;;;;;;33.88;20.52;;;;;;;;;;5097753;28;20047;-76
2022/03/19 01:30:11;;;;;;;38.67;20.55;;;;;;;;;;5081339;28;20036;-77
2022/03/19 01:32:37;;;;;;;36.42;21.52;;;;;;;;;;5101128;28;20063;-77
2022/03/19 01:35:03;;;;;;;38.95;21.15;;;;;;;;;;5097295;28;20027;-77
2022/03/19 01:37:29;;;;;;;38.35;22.23;;;;;;;;;;5098052;28;20031;-77
2022/03/19 01:39:55;;;;;;;39.33;22.83;;;;;;;;;;5079226;28;20050;-76
2022/03/19 01:42:25;;;;;;;36.08;21.33;;;;;;;;;;5097491;28;20070;-77
2022/03/19 01:44:52;;;;;;;39.80;21.48;;;;;;;;;;5079467;28;20050;-77
2022/03/19 01:47:18;;;;;;;38.63;20.60;;;;;;;;;;5095547;28;20032;-76
2022/03/19 01:49:44;;;;;;;33.13;20.35;;;;;;;;;;5096067;28;20048;-76
2022/03/19 01:52:10;;;;;;;41.30;20.50;;;;;;;;;;5096092;28;20067;-77
2022/03/19 01:54:37;;;;;;;39.08;21.70;;;;;;;;;;5080089;28;20047;-76
2022/03/19 01:57:03;;;;;;;36.85;19.30;;;;;;;;;;5078566;28;20340;-76
2022/03/19 01:59:31;;;;;;;40.60;21.70;;;;;;;;;;5095969;28;20040;-76
2022/03/19 02:01:57;;;;;;;39.10;22.17;;;;;;;;;;5078601;28;20336;-76
2022/03/19 02:04:23;;;;;;;41.45;21.90;;;;;;;;;;5096812;28;20051;-77
2022/03/19 02:06:49;;;;;;;39.92;21.42;;;;;;;;;;5079775;28;20042;-76
2022/03/19 02:09:15;;;;;;;38.30;20.85;;;;;;;;;;5096613;28;20040;-77
2022/03/19 02:11:41;;;;;;;38.30;21.42;;;;;;;;;;5096433;28;20363;-76
2022/03/19 02:14:07;;;;;;;37.83;20.52;;;;;;;;;;5102844;28;20044;-78
2022/03/19 02:16:33;;;;;;;42.63;21.20;;;;;;;;;;5102202;28;20047;-77
2022/03/19 02:18:59;;;;;;;36.45;21.85;;;;;;;;;;5078754;28;20056;-77
2022/03/19 02:21:25;;;;;;;34.10;20.80;;;;;;;;;;5081909;28;20040;-76
2022/03/19 02:26:46;;;;;;;37.20;21.05;;;;;;;;;;5097673;28;20040;-77
2022/03/19 02:29:12;;;;;;;30.02;15.52;;;;;;;;;;5106329;28;20549;-77
2022/03/19 02:31:40;;;;;;;37.20;20.25;;;;;;;;;;5108198;28;20092;-76
2022/03/19 02:34:08;;;;;;;41.13;21.90;;;;;;;;;;5096573;28;20063;-77
2022/03/19 02:36:35;;;;;;;41.70;21.17;;;;;;;;;;5105883;28;20108;-76
2022/03/19 02:39:08;;;;;;;41.47;22.25;;;;;;;;;;5080423;28;20047;-76
2022/03/19 02:41:34;;;;;;;38.33;21.48;;;;;;;;;;5100202;28;20054;-77
2022/03/19 02:44:00;;;;;;;41.88;21.77;;;;;;;;;;5098859;28;20044;-77
2022/03/19 02:46:36;;;;;;;40.65;20.73;;;;;;;;;;5083544;28;20083;-76
2022/03/19 02:49:02;;;;;;;36.35;20.00;;;;;;;;;;5078044;28;20086;-76
2022/03/19 02:51:28;;;;;;;37.35;19.55;;;;;;;;;;5094401;28;20404;-76
2022/03/19 02:53:54;;;;;;;37.85;20.42;;;;;;;;;;5096091;28;20040;-76
2022/03/19 02:56:20;;;;;;;41.00;21.27;;;;;;;;;;5080820;28;20039;-77
2022/03/19 02:58:46;;;;;;;35.53;20.13;;;;;;;;;;5080535;28;20075;-77
2022/03/19 03:01:12;;;;;;;39.70;20.52;;;;;;;;;;5079312;28;20340;-77
2022/03/19 03:03:38;;;;;;;32.67;19.98;;;;;;;;;;5095693;28;20098;-77
2022/03/19 03:06:04;;;;;;;34.38;20.48;;;;;;;;;;5095965;28;20050;-78
2022/03/19 03:08:30;;;;;;;33.92;20.50;;;;;;;;;;5094095;28;20458;-76
2022/03/19 03:10:56;;;;;;;37.97;21.15;;;;;;;;;;5094420;28;20111;-77
2022/03/19 03:13:22;;;;;;;36.38;19.48;;;;;;;;;;5096866;28;20058;-76
2022/03/19 03:15:48;;;;;;;38.13;20.67;;;;;;;;;;5104168;28;20039;-77
2022/03/19 03:18:14;;;;;;;38.42;20.45;;;;;;;;;;5113373;28;20047;-78
2022/03/19 03:20:40;;;;;;;46.33;21.27;;;;;;;;;;5115602;28;20047;-77
2022/03/19 03:23:06;;;;;;;41.55;20.92;;;;;;;;;;5113589;28;20067;-77
2022/03/19 03:25:33;;;;;;;40.28;21.10;;;;;;;;;;5095445;28;20030;-77
2022/03/19 03:27:59;;;;;;;43.60;21.70;;;;;;;;;;5101304;28;20043;-77
2022/03/19 03:30:25;;;;;;;44.10;22.20;;;;;;;;;;5094707;28;20036;-76
2022/03/19 03:32:51;;;;;;;39.10;21.83;;;;;;;;;;5077125;28;20105;-76
2022/03/19 03:35:17;;;;;;;41.35;22.38;;;;;;;;;;5094270;28;20542;-77
2022/03/19 03:37:43;;;;;;;35.28;21.60;;;;;;;;;;5077298;28;20036;-76
2022/03/19 03:40:09;;;;;;;43.47;22.23;;;;;;;;;;5080467;28;20127;-76
2022/03/19 03:42:35;;;;;;;42.75;22.95;;;;;;;;;;5081654;28;20043;-76
2022/03/19 03:45:01;;;;;;;43.53;22.60;;;;;;;;;;5097721;28;20051;-76
2022/03/19 03:47:27;;;;;;;42.60;22.58;;;;;;;;;;5098946;28;20071;-78
2022/03/19 03:49:53;;;;;;;37.92;21.63;;;;;;;;;;5082306;28;20040;-78
2022/03/19 03:52:20;;;;;;;39.13;21.92;;;;;;;;;;5098435;28;20071;-76
2022/03/19 03:54:46;;;;;;;47.13;24.08;;;;;;;;;;5099121;28;20120;-77
2022/03/19 03:57:12;;;;;;;41.35;22.92;;;;;;;;;;5099309;28;20040;-78
2022/03/19 03:59:38;;;;;;;38.65;21.80;;;;;;;;;;5082157;28;20052;-77
2022/03/19 04:02:04;;;;;;;39.65;21.92;;;;;;;;;;5099518;28;20097;-77
2022/03/19 04:04:30;;;;;;;40.70;22.08;;;;;;;;;;5087571;28;20044;-77
2022/03/19 04:06:56;;;;;;;40.13;22.00;;;;;;;;;;5082134;28;20070;-78
2022/03/19 04:09:22;;;;;;;36.78;21.95;;;;;;;;;;5098562;28;20067;-76
2022/03/19 04:11:48;;;;;;;46.67;22.92;;;;;;;;;;5097819;28;20040;-76
2022/03/19 04:14:14;;;;;;;37.75;21.63;;;;;;;;;;5097998;28;20128;-76
2022/03/19 04:16:40;;;;;;;39.67;21.13;;;;;;;;;;5081791;28;20158;-78
2022/03/19 04:19:06;;;;;;;39.17;21.48;;;;;;;;;;5099199;28;20367;-78
2022/03/19 04:21:32;;;;;;;44.67;22.83;;;;;;;;;;5099111;28;20440;-78
2022/03/19 04:23:58;;;;;;;42.08;23.83;;;;;;;;;;5083403;28;20344;-78
2022/03/19 04:26:24;;;;;;;44.45;24.35;;;;;;;;;;5099234;28;20343;-78
2022/03/19 04:28:50;;;;;;;40.33;23.13;;;;;;;;;;5081140;28;20040;-76
2022/03/19 04:31:16;;;;;;;40.38;23.55;;;;;;;;;;5097425;28;20043;-76
2022/03/19 04:33:42;;;;;;;42.85;23.25;;;;;;;;;;5081315;28;20109;-77
2022/03/19 04:38:52;;;;;;;46.55;23.95;;;;;;;;;;5098763;28;20039;-76
2022/03/19 04:41:18;;;;;;;39.60;24.42;;;;;;;;;;5080542;28;20097;-76
2022/03/19 04:43:44;;;;;;;42.88;24.75;;;;;;;;;;5099495;28;20378;-77
2022/03/19 04:46:10;;;;;;;44.97;26.92;;;;;;;;;;5080894;28;20051;-77
2022/03/19 04:48:36;;;;;;;44.78;26.65;;;;;;;;;;5096583;28;20086;-77
2022/03/19 04:51:02;;;;;;;51.42;27.58;;;;;;;;;;5097224;28;20048;-78
2022/03/19 04:53:28;;;;;;;42.63;24.92;;;;;;;;;;5081598;28;20036;-78
2022/03/19 04:55:54;;;;;;;48.78;25.83;;;;;;;;;;5098137;28;20050;-78
2022/03/19 04:58:20;;;;;;;44.72;26.38;;;;;;;;;;5098220;28;20055;-78
2022/03/19 05:00:46;;;;;;;47.55;27.35;;;;;;;;;;5098754;28;20055;-78
2022/03/19 05:03:13;;;;;;;50.80;26.40;;;;;;;;;;5081932;28;20502;-78
2022/03/19 05:05:39;;;;;;;51.72;27.70;;;;;;;;;;5081194;28;20509;-78
2022/03/19 05:08:06;;;;;;;51.53;27.15;;;;;;;;;;5096594;28;20114;-76
2022/03/19 05:13:17;;;;;;;45.80;26.90;;;;;;;;;;5096560;28;20123;-76
2022/03/19 05:15:43;;;;;;;48.47;26.55;;;;;;;;;;5081358;28;20102;-79
2022/03/19 05:18:09;;;;;;;51.17;26.15;;;;;;;;;;5082633;28;20040;-78
2022/03/19 05:20:35;;;;;;;47.28;25.90;;;;;;;;;;5098144;28;20040;-78
2022/03/19 05:23:01;;;;;;;50.13;27.00;;;;;;;;;;5081174;28;20044;-78
2022/03/19 05:25:27;;;;;;;49.45;26.85;;;;;;;;;;5098307;28;20498;-78
2022/03/19 05:27:53;;;;;;;45.38;26.05;;;;;;;;;;5099504;28;20087;-78
2022/03/19 05:30:19;;;;;;;48.28;26.77;;;;;;;;;;5097789;28;20039;-77
2022/03/19 05:32:45;;;;;;;48.47;28.00;;;;;;;;;;5097505;28;20055;-77
2022/03/19 05:35:11;;;;;;;46.33;27.75;;;;;;;;;;5105625;28;20039;-77
2022/03/19 05:37:37;;;;;;;48.78;27.90;;;;;;;;;;5098300;28;20032;-77
2022/03/19 05:40:07;;;;;;;46.17;26.67;;;;;;;;;;5100743;28;20091;-78
2022/03/19 05:42:33;;;;;;;52.00;28.98;;;;;;;;;;5104436;28;20084;-78
2022/03/19 05:44:59;;;;;;;54.90;27.55;;;;;;;;;;5113833;28;20440;-80
2022/03/19 05:47:25;;;;;;;52.53;27.48;;;;;;;;;;5098832;28;20501;-79
2022/03/19 05:49:51;;;;;;;52.30;28.42;;;;;;;;;;5114660;28;20049;-79
2022/03/19 05:52:17;;;;;;;54.70;29.30;;;;;;;;;;5114931;28;20047;-79
2022/03/19 05:54:44;;;;;;;49.00;27.40;;;;;;;;;;5106918;28;20363;-81
2022/03/19 05:57:10;;;;;;;56.17;29.48;;;;;;;;;;5089125;28;20032;-81
2022/03/19 05:59:36;;;;;;;51.42;28.75;;;;;;;;;;5106255;28;20047;-82
2022/03/19 06:02:02;;;;;;;47.45;26.30;;;;;;;;;;5087708;28;20051;-82
2022/03/19 06:04:28;;;;;;;46.35;27.98;;;;;;;;;;5084409;28;20047;-82
2022/03/19 06:06:55;;;;;;;53.90;28.80;;;;;;;;;;5105212;28;20048;-81
2022/03/19 06:09:21;;;;;;;56.72;30.30;;;;;;;;;;5087653;28;20350;-83
2022/03/19 06:11:47;;;;;;;51.78;28.95;;;;;;;;;;5104053;28;20123;-80
2022/03/19 06:14:13;;;;;;;48.95;29.42;;;;;;;;;;5104660;28;20050;-81
2022/03/19 06:16:39;;;;;;;52.20;29.23;;;;;;;;;;5086972;28;20452;-81
2022/03/19 06:19:05;;;;;;;52.75;29.50;;;;;;;;;;5103343;28;20070;-81
2022/03/19 06:21:31;;;;;;;46.92;28.58;;;;;;;;;;5104589;28;20036;-81
2022/03/19 06:23:57;;;;;;;52.30;28.25;;;;;;;;;;5108174;28;20044;-81
2022/03/19 06:26:23;;;;;;;58.13;29.88;;;;;;;;;;5090474;28;20040;-80
2022/03/19 06:28:49;;;;;;;46.38;27.77;;;;;;;;;;5089077;28;20413;-80
2022/03/19 06:31:15;;;;;;;52.70;29.33;;;;;;;;;;5086135;28;20063;-80
2022/03/19 06:33:42;;;;;;;52.20;28.80;;;;;;;;;;5086200;28;20036;-81
2022/03/19 06:38:53;;;;;;;53.38;29.13;;;;;;;;;;5114642;28;20036;-78
2022/03/19 06:41:21;;;;;;;47.92;27.25;;;;;;;;;;5112373;28;20096;-81
2022/03/19 06:43:48;;;;;;;53.72;27.25;;;;;;;;;;5085168;28;20123;-81
2022/03/19 06:46:14;;;;;;;46.95;27.48;;;;;;;;;;5085507;28;20378;-81
2022/03/19 06:48:40;;;;;;;53.22;27.08;;;;;;;;;;5086793;28;20467;-81
2022/03/19 06:51:06;;;;;;;49.72;27.42;;;;;;;;;;5086382;28;20064;-82
2022/03/19 06:53:32;;;;;;;47.50;27.35;;;;;;;;;;5086084;28;20044;-83
2022/03/19 06:55:58;;;;;;;44.50;26.00;;;;;;;;;;5085287;28;20059;-83
2022/03/19 06:58:24;;;;;;;45.22;26.17;;;;;;;;;;5103082;28;20355;-83
2022/03/19 07:00:50;;;;;;;45.03;25.80;;;;;;;;;;5084134;28;20032;-82
2022/03/19 07:03:16;;;;;;;48.53;26.55;;;;;;;;;;5102991;28;20058;-82
2022/03/19 07:05:42;;;;;;;48.25;25.42;;;;;;;;;;5087636;28;20494;-83
2022/03/19 07:08:08;;;;;;;47.60;26.48;;;;;;;;;;5109434;28;20073;-83
2022/03/19 07:10:37;;;;;;;48.60;25.33;;;;;;;;;;5095629;28;20095;-83
2022/03/19 07:13:03;;;;;;;47.38;26.25;;;;;;;;;;5104702;28;20440;-83
2022/03/19 07:15:29;;;;;;;44.28;24.85;;;;;;;;;;5092327;28;20032;-82
2022/03/19 07:17:56;;;;;;;45.30;23.98;;;;;;;;;;5098013;28;20047;-83
2022/03/19 07:20:22;;;;;;;44.65;23.33;;;;;;;;;;5114066;28;20067;-83
2022/03/19 07:22:52;;;;;;;45.05;23.90;;;;;;;;;;5089950;28;20443;-83
2022/03/19 07:25:18;;;;;;;38.00;22.75;;;;;;;;;;5080801;28;20459;-80
2022/03/19 07:27:44;;;;;;;41.15;22.13;;;;;;;;;;5100797;28;20051;-80
2022/03/19 07:30:10;;;;;;;41.50;22.83;;;;;;;;;;5081386;28;20040;-81
2022/03/19 07:32:37;;;;;;;47.65;22.30;;;;;;;;;;5100164;28;20359;-83
2022/03/19 07:35:03;;;;;;;36.63;20.02;;;;;;;;;;5102019;28;20036;-82
2022/03/19 07:37:29;;;;;;;43.78;20.98;;;;;;;;;;5084214;28;20397;-81
2022/03/19 07:39:58;;;;;;;35.92;19.33;;;;;;;;;;5083682;28;20042;-82
2022/03/19 07:42:24;;;;;;;36.55;19.70;;;;;;;;;;5082783;28;20043;-81
2022/03/19 07:44:50;;;;;;;31.33;17.95;;;;;;;;;;5081508;28;20044;-80
2022/03/19 07:47:17;;;;;;;32.70;18.38;;;;;;;;;;5104431;28;20039;-82
2022/03/19 07:49:43;;;;;;;33.00;18.70;;;;;;;;;;5085455;28;20064;-82
2022/03/19 07:52:09;;;;;;;33.72;17.52;;;;;;;;;;5103961;28;20062;-81
2022/03/19 07:54:36;;;;;;;35.15;17.52;;;;;;;;;;5103377;28;20092;-82
2022/03/19 07:57:06;;;;;;;34.55;17.75;;;;;;;;;;5088859;28;20044;-81
2022/03/19 07:59:32;;;;;;;28.67;15.63;;;;;;;;;;5112435;28;20032;-80
2022/03/19 08:01:58;;;;;;;32.25;15.60;;;;;;;;;;5086394;28;20131;-82
2022/03/19 08:04:24;;;;;;;32.40;15.98;;;;;;;;;;5087146;28;20158;-83
2022/03/19 08:06:53;;;;;;;28.65;15.90;;;;;;;;;;5109562;28;20114;-82
2022/03/19 08:09:20;;;;;;;30.35;15.90;;;;;;;;;;5122551;28;20110;-83
2022/03/19 08:11:49;;;;;;;27.27;15.02;;;;;;;;;;5106743;28;20036;-83
2022/03/19 08:14:15;;;;;;;30.88;14.27;;;;;;;;;;5121836;28;20126;-82
2022/03/19 08:16:42;;;;;;;29.48;14.07;;;;;;;;;;5105396;28;20051;-80
2022/03/19 08:19:09;;;;;;;28.42;13.35;;;;;;;;;;5110169;28;20134;-82
2022/03/19 08:21:35;;;;;;;28.25;13.98;;;;;;;;;;5110232;28;20391;-80
2022/03/19 08:24:01;;;;;;;27.80;13.30;;;;;;;;;;5110279;28;20070;-81
2022/03/19 08:26:27;;;;;;;25.38;12.88;;;;;;;;;;5108020;28;20039;-81
2022/03/19 08:28:53;;;;;;;27.33;13.07;;;;;;;;;;5107741;28;20039;-82
2022/03/19 08:31:19;;;;;;;21.83;13.40;;;;;;;;;;5107821;28;20036;-81
2022/03/19 08:33:45;;;;;;;22.65;12.43;;;;;;;;;;5124763;28;20120;-81
2022/03/19 08:36:11;;;;;;;23.40;11.98;;;;;;;;;;5106487;28;20549;-81
2022/03/19 08:41:22;;;;;;;25.85;12.65;;;;;;;;;;5126718;28;20039;-81
2022/03/19 08:43:48;;;;;;;29.00;13.82;;;;;;;;;;5113360;28;20054;-82
2022/03/19 08:46:14;;;;;;;29.77;12.75;;;;;;;;;;5131865;28;20040;-80
2022/03/19 08:48:40;;;;;;;27.65;12.45;;;;;;;;;;5137747;28;20050;-82
2022/03/19 08:53:50;;;;;;;24.92;11.55;;;;;;;;;;5127054;28;20455;-83
2022/03/19 08:56:17;;;;;;;22.42;11.55;;;;;;;;;;5109527;28;20089;-82
2022/03/19 08:58:42;;;;;;;25.40;11.85;;;;;;;;;;5109887;28;20036;-83
2022/03/19 09:01:08;;;;;;;23.35;11.55;;;;;;;;;;5126100;28;20059;-84
2022/03/19 09:03:34;;;;;;;19.58;10.77;;;;;;;;;;5127189;28;20060;-83
2022/03/19 09:06:01;;;;;;;21.52;10.90;;;;;;;;;;5117871;28;20029;-80
2022/03/19 09:08:27;;;;;;;22.15;10.60;;;;;;;;;;5140255;28;20059;-81
2022/03/19 09:10:53;;;;;;;23.27;10.50;;;;;;;;;;5141131;28;20024;-82
2022/03/19 09:13:19;;;;;;;21.65;9.95;;;;;;;;;;5123954;28;20028;-82
2022/03/19 09:15:45;;;;;;;21.75;10.10;;;;;;;;;;5112971;28;20047;-82
2022/03/19 09:18:12;;;;;;;20.85;9.75;;;;;;;;;;5102370;28;20092;-80
2022/03/19 09:20:38;;;;;;;21.63;10.18;;;;;;;;;;5103919;28;20447;-80
2022/03/19 09:23:04;;;;;;;23.00;10.15;;;;;;;;;;5102587;28;20082;-84
2022/03/19 09:25:30;;;;;;;19.45;9.82;;;;;;;;;;5119504;28;20047;-83
2022/03/19 09:27:56;;;;;;;19.75;9.60;;;;;;;;;;5120605;28;20040;-82
2022/03/19 09:30:22;;;;;;;16.42;8.75;;;;;;;;;;5120659;28;20036;-84
2022/03/19 09:32:50;;;;;;;17.38;8.40;;;;;;;;;;5107568;28;20040;-83
2022/03/19 09:35:16;;;;;;;20.30;9.73;;;;;;;;;;5128204;28;20028;-81
2022/03/19 09:37:42;;;;;;;21.35;9.15;;;;;;;;;;5106389;28;20447;-83
2022/03/19 09:40:09;;;;;;;17.10;8.43;;;;;;;;;;5107729;28;20049;-83
2022/03/19 09:42:35;;;;;;;18.60;9.18;;;;;;;;;;5103047;28;20071;-80
2022/03/19 09:45:01;;;;;;;21.70;8.68;;;;;;;;;;5108357;28;20142;-81
2022/03/19 09:47:27;;;;;;;19.60;8.68;;;;;;;;;;5116852;28;20074;-83
2022/03/19 09:49:53;;;;;;;21.83;8.43;;;;;;;;;;5114614;28;20047;-82
2022/03/19 09:52:22;;;;;;;16.05;7.38;;;;;;;;;;5114483;28;20048;-83
2022/03/19 09:54:48;;;;;;;19.05;8.02;;;;;;;;;;5124608;28;20383;-83
2022/03/19 09:57:14;;;;;;;13.82;7.28;;;;;;;;;;5124880;28;20399;-83
2022/03/19 09:59:40;;;;;;;16.33;7.10;;;;;;;;;;5124124;28;20567;-82
2022/03/19 10:02:06;;;;;;;21.35;6.97;;;;;;;;;;5123459;28;20040;-83
2022/03/19 10:04:32;;;;;;;14.35;7.15;;;;;;;;;;5121852;28;20111;-83
2022/03/19 10:09:46;;;;;;;14.75;6.72;;;;;;;;;;5122724;28;20043;-82
2022/03/19 10:12:14;;;;;;;18.02;6.75;;;;;;;;;;5105263;28;20050;-82
2022/03/19 10:14:40;;;;;;;13.82;6.60;;;;;;;;;;5124212;28;20046;-81
2022/03/19 10:17:06;;;;;;;16.02;7.15;;;;;;;;;;5106264;28;20046;-81
2022/03/19 10:19:32;;;;;;;17.75;6.53;;;;;;;;;;5104368;28;20032;-80
2022/03/19 10:22:10;;;;;;;15.23;6.20;;;;;;;;;;5120828;28;20039;-80
2022/03/19 10:24:37;;;;;;;12.82;6.28;;;;;;;;;;5103484;28;20184;-79
2022/03/19 10:27:03;;;;;;;14.82;6.38;;;;;;;;;;5119553;28;20054;-79
2022/03/19 10:29:30;;;;;;;13.55;5.85;;;;;;;;;;5102607;28;20040;-82
2022/03/19 10:32:00;;;;;;;15.98;6.20;;;;;;;;;;5102763;28;20031;-82
2022/03/19 10:34:26;;;;;;;14.40;6.00;;;;;;;;;;5121644;28;20058;-82
2022/03/19 10:36:52;;;;;;;14.00;5.80;;;;;;;;;;5104872;28;20043;-82
2022/03/19 10:39:19;;;;;;;11.30;4.72;;;;;;;;;;5119548;28;20040;-82
2022/03/19 10:41:45;;;;;;;14.40;5.32;;;;;;;;;;5118559;28;20043;-82
2022/03/19 10:44:11;;;;;;;12.98;4.88;;;;;;;;;;5118378;28;20046;-82
2022/03/19 10:46:37;;;;;;;10.60;4.60;;;;;;;;;;5118295;28;20084;-82
2022/03/19 10:49:03;;;;;;;9.45;4.43;;;;;;;;;;5117476;28;20146;-81
2022/03/19 10:51:31;;;;;;;12.43;4.13;;;;;;;;;;5100310;28;20100;-80
2022/03/19 10:53:57;;;;;;;9.90;3.97;;;;;;;;;;5119493;28;20130;-79
2022/03/19 10:56:23;;;;;;;9.73;3.97;;;;;;;;;;5102910;28;20118;-80
2022/03/19 10:58:50;;;;;;;9.38;3.80;;;;;;;;;;5123412;28;20039;-81
2022/03/19 11:01:16;;;;;;;8.60;3.60;;;;;;;;;;5119215;28;20035;-80
2022/03/19 11:03:43;;;;;;;9.80;3.05;;;;;;;;;;5117358;28;20055;-83
2022/03/19 11:06:09;;;;;;;9.38;3.15;;;;;;;;;;5103892;28;20047;-83
2022/03/19 11:08:38;;;;;;;8.55;3.40;;;;;;;;;;5128916;28;20131;-79
2022/03/19 11:11:06;;;;;;;9.90;2.72;;;;;;;;;;5111612;28;20035;-80
2022/03/19 11:13:35;;;;;;;7.80;2.70;;;;;;;;;;5110457;28;20055;-80
2022/03/19 11:16:01;;;;;;;6.65;2.53;;;;;;;;;;5108078;28;20101;-83
2022/03/19 11:18:27;;;;;;;7.95;2.03;;;;;;;;;;5133385;28;20043;-83
2022/03/19 11:20:53;;;;;;;6.20;2.13;;;;;;;;;;5123712;28;20035;-83
2022/03/19 11:23:25;;;;;;;9.88;2.35;;;;;;;;;;5104846;28;20050;-84
2022/03/19 11:25:52;;;;;;;6.25;2.63;;;;;;;;;;5103960;28;20091;-83
2022/03/19 11:28:18;;;;;;;8.40;2.90;;;;;;;;;;5102976;28;20480;-82
2022/03/19 11:30:45;;;;;;;7.30;2.20;;;;;;;;;;5123979;28;20036;-79
2022/03/19 11:33:14;;;;;;;5.13;2.10;;;;;;;;;;5107502;28;20027;-80
2022/03/19 11:35:41;;;;;;;6.13;1.90;;;;;;;;;;5124231;28;20044;-80
2022/03/19 11:38:11;;;;;;;6.25;2.15;;;;;;;;;;5124607;28;20048;-81
2022/03/19 11:40:37;;;;;;;9.27;2.22;;;;;;;;;;5125610;28;20058;-82
2022/03/19 11:43:07;;;;;;;6.45;2.03;;;;;;;;;;5113051;28;20040;-82
2022/03/19 11:45:57;;;;;;;6.95;2.05;;;;;;;;;;5114914;28;20065;-82
2022/03/19 11:48:36;;;;;;;5.65;1.92;;;;;;;;;;5113574;28;20100;-80
2022/03/19 11:51:24;;;;;;;6.78;1.65;;;;;;;;;;5128707;28;20032;-80
2022/03/19 11:53:50;;;;;;;7.47;2.10;;;;;;;;;;5134128;28;20051;-83
2022/03/19 11:56:19;;;;;;;4.97;1.85;;;;;;;;;;5135048;28;20039;-82
2022/03/19 11:58:45;;;;;;;7.97;1.90;;;;;;;;;;5132848;28;20039;-82
2022/03/19 12:01:11;;;;;;;6.55;1.83;;;;;;;;;;5127222;28;20035;-83
2022/03/19 12:03:57;;;;;;;6.25;1.70;;;;;;;;;;5126409;28;20050;-83
2022/03/19 12:06:33;;;;;;;6.00;2.10;;;;;;;;;;5137443;28;20039;-82
2022/03/19 12:08:59;;;;;;;5.35;1.75;;;;;;;;;;5132495;28;20101;-83
2022/03/19 12:11:25;;;;;;;6.43;2.10;;;;;;;;;;5124821;28;20082;-84
2022/03/19 12:13:51;;;;;;;11.45;3.00;;;;;;;;;;5124765;28;20039;-83
2022/03/19 12:16:36;;;;;;;6.50;1.88;;;;;;;;;;5124421;28;20081;-84
2022/03/19 12:19:02;;;;;;;5.28;1.90;;;;;;;;;;5125731;28;20047;-83
2022/03/19 12:21:29;;;;;;;7.60;1.95;;;;;;;;;;5108332;28;20047;-84
2022/03/19 12:23:55;;;;;;;6.38;2.00;;;;;;;;;;5110584;28;20046;-82
2022/03/19 12:26:22;;;;;;;7.05;1.77;;;;;;;;;;5126993;28;20039;-83
2022/03/19 12:28:58;;;;;;;7.07;1.50;;;;;;;;;;5132999;28;20069;-82
2022/03/19 12:31:28;;;;;;;6.00;1.65;;;;;;;;;;5132375;28;20047;-82
2022/03/19 12:33:54;;;;;;;6.07;1.92;;;;;;;;;;5131901;28;20055;-82
2022/03/19 12:36:20;;;;;;;5.15;1.60;;;;;;;;;;5115620;28;20039;-81
2022/03/19 12:38:48;;;;;;;5.43;1.90;;;;;;;;;;5136309;28;20059;-80
2022/03/19 12:41:26;;;;;;;4.78;1.98;;;;;;;;;;5120700;28;20044;-83
2022/03/19 12:43:52;;;;;;;7.95;2.30;;;;;;;;;;5138679;28;20020;-82
2022/03/19 12:46:28;;;;;;;5.72;2.30;;;;;;;;;;5141975;28;20110;-80
2022/03/19 12:49:01;;;;;;;6.25;2.28;;;;;;;;;;5134701;28;20043;-80
2022/03/19 12:51:27;;;;;;;5.95;2.50;;;;;;;;;;5128567;28;20036;-80
2022/03/19 12:53:53;;;;;;;7.30;2.10;;;;;;;;;;5127271;28;20043;-82
2022/03/19 12:56:24;;;;;;;6.72;2.17;;;;;;;;;;5129971;28;20040;-84
2022/03/19 12:58:53;;;;;;;8.65;1.98;;;;;;;;;;5115081;28;20039;-80
2022/03/19 13:01:20;;;;;;;8.23;2.17;;;;;;;;;;5116486;28;20050;-85
2022/03/19 13:03:46;;;;;;;6.15;1.80;;;;;;;;;;5114383;28;20070;-82
2022/03/19 13:06:14;;;;;;;9.23;2.70;;;;;;;;;;5112949;28;20047;-83
2022/03/19 13:08:44;;;;;;;5.15;2.17;;;;;;;;;;5133810;28;20043;-82
2022/03/19 13:11:13;;;;;;;6.43;2.20;;;;;;;;;;5133923;28;20032;-81
2022/03/19 13:13:40;;;;;;;5.18;2.47;;;;;;;;;;5117934;28;20099;-81
2022/03/19 13:16:06;;;;;;;8.77;3.00;;;;;;;;;;5133589;28;20032;-81
2022/03/19 13:18:35;;;;;;;6.47;2.40;;;;;;;;;;5134828;28;20042;-82
2022/03/19 13:21:02;;;;;;;5.68;2.38;;;;;;;;;;5119244;28;20055;-79
2022/03/19 13:23:29;;;;;;;8.45;2.10;;;;;;;;;;5115830;28;20047;-81
2022/03/19 13:25:55;;;;;;;4.13;1.60;;;;;;;;;;5134731;28;20036;-81
2022/03/19 13:28:21;;;;;;;5.60;2.08;;;;;;;;;;5131725;28;20043;-82
2022/03/19 13:30:49;;;;;;;5.05;1.85;;;;;;;;;;5116481;28;20035;-81
2022/03/19 13:33:15;;;;;;;5.55;2.00;;;;;;;;;;5126511;28;20503;-80
2022/03/19 13:35:47;;;;;;;4.30;1.98;;;;;;;;;;5124296;28;20042;-80
2022/03/19 13:38:13;;;;;;;4.47;2.20;;;;;;;;;;5123916;28;20055;-79
2022/03/19 13:40:39;;;;;;;9.55;3.03;;;;;;;;;;5110879;28;20035;-79
2022/03/19 13:43:05;;;;;;;8.55;3.10;;;;;;;;;;5131126;28;20051;-80
2022/03/19 13:45:32;;;;;;;7.97;3.20;;;;;;;;;;5127904;28;20059;-81
2022/03/19 13:48:05;;;;;;;7.25;3.10;;;;;;;;;;5127265;28;20039;-81
2022/03/19 13:50:31;;;;;;;6.63;2.40;;;;;;;;;;5110261;28;20118;-82
2022/03/19 13:52:59;;;;;;;6.80;2.72;;;;;;;;;;5130003;28;20059;-81
2022/03/19 13:55:28;;;;;;;11.93;2.75;;;;;;;;;;5111155;28;20046;-83
2022/03/19 13:58:01;;;;;;;9.52;3.03;;;;;;;;;;5131199;28;20044;-81
2022/03/19 14:00:37;;;;;;;9.20;3.45;;;;;;;;;;5128417;28;20047;-82
2022/03/19 14:03:09;;;;;;;10.02;4.28;;;;;;;;;;5127927;28;20055;-82
2022/03/19 14:05:35;;;;;;;9.57;3.90;;;;;;;;;;5127090;28;20039;-81
2022/03/19 14:08:03;;;;;;;9.43;3.72;;;;;;;;;;5134954;28;20035;-82
2022/03/19 14:10:36;;;;;;;11.80;4.68;;;;;;;;;;5105914;28;20036;-82
2022/03/19 14:13:03;;;;;;;11.95;4.75;;;;;;;;;;5104965;28;20043;-81
2022/03/19 14:15:35;;;;;;;9.93;4.53;;;;;;;;;;5122061;28;20039;-81
2022/03/19 14:18:01;;;;;;;11.07;5.30;;;;;;;;;;5129522;28;20036;-81
2022/03/19 14:20:28;;;;;;;12.93;4.90;;;;;;;;;;5125184;28;20035;-82
2022/03/19 14:22:54;;;;;;;9.80;4.95;;;;;;;;;;5123016;28;20093;-81
2022/03/19 14:25:20;;;;;;;10.40;4.65;;;;;;;;;;5132691;28;20032;-80
2022/03/19 14:27:46;;;;;;;11.80;4.78;;;;;;;;;;5119096;28;20035;-82
2022/03/19 14:30:13;;;;;;;11.27;5.03;;;;;;;;;;5120327;28;20097;-82
2022/03/19 14:32:40;;;;;;;8.80;4.13;;;;;;;;;;5135470;28;20054;-83
2022/03/19 14:35:30;;;;;;;8.02;4.00;;;;;;;;;;5132735;28;20039;-83
2022/03/19 14:37:56;;;;;;;6.80;3.05;;;;;;;;;;5119095;28;20039;-82
2022/03/19 14:40:22;;;;;;;7.90;3.03;;;;;;;;;;5108436;28;20039;-82
2022/03/19 14:42:48;;;;;;;7.57;3.22;;;;;;;;;;5109005;28;20044;-84
2022/03/19 14:45:14;;;;;;;8.07;3.00;;;;;;;;;;5123287;28;20059;-82